Time;durP1;ratioP1;P1;durP2;ratioP2;P2;SDS_P1;SDS_P2;PMS_P1;PMS_P2;Temp;Humidity;BMP_temperature;BMP_pressure;BME280_temperature;BME280_humidity;BME280_pressure;Samples;Min_cycle;Max_cycle;Signal;HPM_P1;HPM_P2
2021/01/18 00:00:45;;;;;;;39.13;21.67;;;-0.50;99.90;;;;;;5060792;28;20536;-71
2021/01/18 00:06:07;;;;;;;30.73;19.33;;;-0.50;99.90;;;;;;5091374;28;20441;-71
2021/01/18 00:08:34;;;;;;;44.50;19.67;;;-0.50;99.90;;;;;;5091878;28;20798;-70
2021/01/18 00:11:02;;;;;;;40.93;22.33;;;-0.50;99.90;;;;;;5086497;28;20457;-71
2021/01/18 00:13:30;;;;;;;40.77;21.20;;;-0.60;99.90;;;;;;5069905;28;20433;-70
2021/01/18 00:15:57;;;;;;;35.40;20.30;;;-0.60;99.90;;;;;;5093743;28;20473;-70
2021/01/18 00:18:26;;;;;;;41.83;23.50;;;-0.60;99.90;;;;;;5096643;28;20422;-71
2021/01/18 00:20:54;;;;;;;35.77;20.10;;;-0.60;99.90;;;;;;5071256;28;20438;-70
2021/01/18 00:23:21;;;;;;;33.80;19.73;;;-0.70;99.90;;;;;;5092193;28;20460;-71
2021/01/18 00:25:49;;;;;;;44.50;21.90;;;-0.70;99.90;;;;;;5085167;28;20449;-72
2021/01/18 00:28:16;;;;;;;41.93;21.60;;;-0.70;99.90;;;;;;5061163;28;20453;-70
2021/01/18 00:30:48;;;;;;;43.40;21.97;;;-0.60;99.90;;;;;;5059880;28;20437;-72
2021/01/18 00:33:16;;;;;;;41.50;23.50;;;-0.70;99.90;;;;;;5078438;28;20483;-70
2021/01/18 00:35:43;;;;;;;38.93;17.73;;;-0.70;99.90;;;;;;5078021;28;20465;-73
2021/01/18 00:38:11;;;;;;;39.30;20.90;;;-0.70;99.90;;;;;;5077960;28;20740;-70
2021/01/18 00:40:38;;;;;;;36.27;20.10;;;-0.70;99.90;;;;;;5079722;28;20426;-70
2021/01/18 00:43:05;;;;;;;37.17;20.43;;;-0.70;99.90;;;;;;5077880;28;20537;-71
2021/01/18 00:45:33;;;;;;;41.93;21.67;;;-0.60;99.90;;;;;;5075804;28;20430;-73
2021/01/18 00:48:07;;;;;;;38.30;20.40;;;-0.60;99.90;;;;;;5058181;28;20591;-72
2021/01/18 00:50:35;;;;;;;36.27;20.80;;;-0.60;99.90;;;;;;5076165;28;20463;-71
2021/01/18 00:53:03;;;;;;;31.10;18.87;;;-0.40;99.90;;;;;;5057937;28;20941;-71
2021/01/18 00:55:34;;;;;;;34.17;19.17;;;-0.40;99.90;;;;;;5054784;28;20936;-71
2021/01/18 00:58:54;;;;;;;36.27;19.80;;;-0.40;99.90;;;;;;5056191;28;20430;-72
2021/01/18 01:01:39;;;;;;;34.10;18.07;;;-0.30;99.90;;;;;;5054332;28;20486;-71
2021/01/18 01:04:07;;;;;;;45.43;20.20;;;-0.30;99.90;;;;;;5054965;28;20462;-72
2021/01/18 01:06:35;;;;;;;37.20;19.80;;;-0.20;99.90;;;;;;5056110;28;20442;-72
2021/01/18 01:09:04;;;;;;;39.50;19.90;;;-0.20;99.90;;;;;;5056308;28;20435;-72
2021/01/18 01:11:32;;;;;;;38.20;19.87;;;-0.20;99.90;;;;;;5069103;28;20422;-69
2021/01/18 01:13:59;;;;;;;39.47;20.33;;;-0.30;99.90;;;;;;5056215;28;20427;-71
2021/01/18 01:16:26;;;;;;;37.53;20.33;;;-0.20;99.90;;;;;;5054809;28;20823;-72
2021/01/18 01:18:55;;;;;;;40.60;19.37;;;-0.20;99.90;;;;;;5038339;28;20577;-71
2021/01/18 01:21:23;;;;;;;40.23;18.87;;;-0.20;99.90;;;;;;5055301;28;20434;-73
2021/01/18 01:23:51;;;;;;;36.83;20.97;;;-0.10;99.90;;;;;;5053597;28;20445;-75
2021/01/18 01:26:18;;;;;;;35.60;17.23;;;-0.10;99.90;;;;;;5055247;28;20449;-73
2021/01/18 01:28:45;;;;;;;42.93;19.03;;;0.10;99.90;;;;;;5037174;28;20472;-73
2021/01/18 01:31:13;;;;;;;36.90;16.97;;;0.20;99.90;;;;;;5069793;28;20470;-70
2021/01/18 01:33:41;;;;;;;33.13;18.00;;;0.40;99.90;;;;;;5055006;28;20533;-71
2021/01/18 01:36:13;;;;;;;29.97;16.37;;;0.50;99.90;;;;;;5054932;28;20454;-71
2021/01/18 01:38:40;;;;;;;33.47;15.50;;;0.60;99.90;;;;;;5037007;28;20475;-72
2021/01/18 01:41:07;;;;;;;29.60;16.20;;;0.80;99.90;;;;;;5054723;28;20602;-73
2021/01/18 01:43:35;;;;;;;24.70;12.80;;;0.90;99.90;;;;;;5054393;28;20539;-71
2021/01/18 01:46:02;;;;;;;25.40;12.77;;;1.00;99.90;;;;;;5052206;28;20479;-71
2021/01/18 01:48:30;;;;;;;27.93;13.03;;;1.10;99.90;;;;;;5054140;28;20442;-73
2021/01/18 01:50:58;;;;;;;26.90;12.90;;;1.20;99.90;;;;;;5054438;28;20443;-70
2021/01/18 01:53:30;;;;;;;22.27;12.80;;;1.30;99.90;;;;;;5056091;28;20427;-70
2021/01/18 01:55:59;;;;;;;22.03;11.10;;;1.40;99.90;;;;;;5073905;28;20462;-70
2021/01/18 01:58:53;;;;;;;21.13;12.93;;;1.50;99.90;;;;;;5068254;28;20968;-71
2021/01/18 02:01:21;;;;;;;26.33;12.40;;;1.60;99.90;;;;;;5055364;28;20469;-71
2021/01/18 02:03:51;;;;;;;18.93;10.90;;;1.70;99.90;;;;;;5055845;28;20458;-70
2021/01/18 02:06:19;;;;;;;18.63;10.90;;;1.70;99.90;;;;;;5073831;28;20437;-74
2021/01/18 02:08:48;;;;;;;21.23;11.33;;;1.70;99.90;;;;;;5056085;28;20516;-70
2021/01/18 02:11:17;;;;;;;21.50;11.60;;;1.70;99.90;;;;;;5056318;28;20940;-70
2021/01/18 02:14:20;;;;;;;24.10;13.23;;;1.80;99.90;;;;;;5074107;28;20960;-70
2021/01/18 02:16:54;;;;;;;19.33;10.37;;;1.80;99.90;;;;;;5072744;28;20479;-72
2021/01/18 02:20:00;;;;;;;26.40;13.80;;;1.80;99.90;;;;;;5073965;28;20975;-72
2021/01/18 02:23:13;;;;;;;28.13;12.30;;;1.80;99.90;;;;;;5074229;28;20436;-70
2021/01/18 02:25:47;;;;;;;18.87;12.50;;;1.90;99.90;;;;;;5048220;28;20442;-70
2021/01/18 02:28:33;;;;;;;21.37;12.03;;;1.90;99.90;;;;;;5073654;28;20429;-70
2021/01/18 02:31:34;;;;;;;23.97;11.03;;;1.90;99.90;;;;;;5061502;28;20520;-69
2021/01/18 02:34:36;;;;;;;22.47;10.30;;;1.90;99.90;;;;;;5073409;28;20423;-70
2021/01/18 02:37:34;;;;;;;22.00;11.50;;;1.90;99.90;;;;;;5055203;28;20479;-70
2021/01/18 02:40:06;;;;;;;18.17;9.93;;;2.00;99.90;;;;;;5073373;28;20774;-71
2021/01/18 02:42:41;;;;;;;17.40;11.20;;;1.90;99.90;;;;;;5073249;28;20434;-70
2021/01/18 02:45:11;;;;;;;20.73;11.27;;;1.90;99.90;;;;;;5073132;28;20436;-70
2021/01/18 02:47:43;;;;;;;19.57;12.07;;;1.90;99.90;;;;;;5054758;28;20530;-71
2021/01/18 02:50:11;;;;;;;15.13;9.40;;;1.90;99.90;;;;;;5073411;28;20490;-73
2021/01/18 02:52:43;;;;;;;20.67;10.83;;;1.90;99.90;;;;;;5055324;28;20438;-71
2021/01/18 02:55:11;;;;;;;19.50;10.63;;;1.90;99.90;;;;;;5072968;28;20903;-70
2021/01/18 02:57:41;;;;;;;33.73;14.10;;;1.80;99.90;;;;;;5055032;28;20487;-71
2021/01/18 03:00:12;;;;;;;17.83;10.23;;;1.80;99.90;;;;;;5073185;28;20482;-72
2021/01/18 03:02:47;;;;;;;23.37;13.20;;;1.80;99.90;;;;;;5089016;28;20535;-71
2021/01/18 03:05:26;;;;;;;18.30;11.73;;;1.70;99.90;;;;;;5058255;28;20432;-71
2021/01/18 03:08:02;;;;;;;19.27;11.10;;;1.80;99.90;;;;;;5073083;28;20430;-71
2021/01/18 03:10:37;;;;;;;17.30;10.60;;;1.70;99.90;;;;;;5054744;28;20979;-70
2021/01/18 03:13:10;;;;;;;17.63;10.37;;;1.80;99.90;;;;;;5073170;28;20426;-70
2021/01/18 03:15:42;;;;;;;17.70;10.30;;;1.70;99.90;;;;;;5072491;28;20496;-70
2021/01/18 03:18:14;;;;;;;17.23;9.27;;;1.70;99.90;;;;;;5072867;28;20477;-71
2021/01/18 03:20:43;;;;;;;16.80;9.77;;;1.70;99.90;;;;;;5072809;28;20437;-70
2021/01/18 03:23:12;;;;;;;18.00;10.20;;;1.60;99.90;;;;;;5073092;28;20457;-70
2021/01/18 03:25:48;;;;;;;20.20;10.50;;;1.60;99.90;;;;;;5054789;28;20437;-71
2021/01/18 03:28:21;;;;;;;18.53;9.67;;;1.70;99.90;;;;;;5054908;28;20990;-73
2021/01/18 03:30:50;;;;;;;17.07;9.87;;;1.70;99.90;;;;;;5054138;28;20449;-70
2021/01/18 03:33:18;;;;;;;16.03;8.87;;;1.70;99.90;;;;;;5076687;28;20481;-71
2021/01/18 03:35:46;;;;;;;13.10;7.97;;;1.70;99.90;;;;;;5058696;28;20433;-71
2021/01/18 03:38:14;;;;;;;15.33;9.50;;;1.70;99.90;;;;;;5058624;28;20441;-70
2021/01/18 03:40:42;;;;;;;15.03;8.70;;;1.70;99.90;;;;;;5076618;28;20460;-71
2021/01/18 03:43:10;;;;;;;14.00;7.97;;;1.70;99.90;;;;;;5056795;28;20511;-70
2021/01/18 03:45:39;;;;;;;14.20;9.40;;;1.70;99.90;;;;;;5073067;28;20479;-71
2021/01/18 03:48:08;;;;;;;14.27;9.60;;;1.70;99.90;;;;;;5058150;28;20481;-72
2021/01/18 03:50:35;;;;;;;14.10;8.40;;;1.70;99.90;;;;;;5076711;28;20455;-70
2021/01/18 03:53:03;;;;;;;15.37;7.90;;;1.70;99.90;;;;;;5076730;28;20441;-69
2021/01/18 03:55:31;;;;;;;15.70;9.00;;;1.70;99.90;;;;;;5076372;28;20812;-71
2021/01/18 03:57:59;;;;;;;11.43;8.50;;;1.80;99.90;;;;;;5058531;28;21025;-71
2021/01/18 04:00:32;;;;;;;10.90;7.57;;;1.70;99.90;;;;;;5075975;28;20449;-70
2021/01/18 04:03:00;;;;;;;11.83;8.13;;;1.80;99.90;;;;;;5058807;28;20511;-71
2021/01/18 04:05:28;;;;;;;10.93;7.50;;;1.80;99.90;;;;;;5058835;28;20441;-71
2021/01/18 04:10:50;;;;;;;13.87;8.80;;;1.90;99.90;;;;;;5077010;28;20437;-72
2021/01/18 04:13:21;;;;;;;11.10;7.67;;;1.90;99.90;;;;;;5059349;28;20936;-71
2021/01/18 04:15:49;;;;;;;12.60;8.73;;;1.80;99.90;;;;;;5059630;28;20993;-71
2021/01/18 04:18:17;;;;;;;10.90;7.97;;;1.80;99.90;;;;;;5083195;28;20465;-71
2021/01/18 04:20:45;;;;;;;7.77;6.73;;;1.80;99.90;;;;;;5096827;28;20446;-72
2021/01/18 04:23:13;;;;;;;17.70;7.97;;;1.80;99.90;;;;;;5062009;28;20917;-71
2021/01/18 04:25:40;;;;;;;15.50;8.63;;;1.80;99.90;;;;;;5058012;28;20426;-71
2021/01/18 04:28:08;;;;;;;13.73;8.63;;;1.80;99.90;;;;;;5075536;28;20421;-71
2021/01/18 04:30:37;;;;;;;12.53;8.03;;;1.80;99.90;;;;;;5075680;28;20448;-71
2021/01/18 04:33:07;;;;;;;12.10;7.77;;;1.80;99.90;;;;;;5075193;28;20485;-73
2021/01/18 04:35:37;;;;;;;12.47;7.87;;;1.80;99.90;;;;;;5075942;28;20434;-71
2021/01/18 04:38:05;;;;;;;12.43;8.20;;;1.80;99.90;;;;;;5075420;28;20756;-71
2021/01/18 04:40:33;;;;;;;12.20;8.27;;;1.80;99.90;;;;;;5075497;28;20462;-71
2021/01/18 04:43:01;;;;;;;14.07;9.03;;;1.80;99.90;;;;;;5057651;28;20466;-71
2021/01/18 04:45:31;;;;;;;11.13;8.33;;;1.80;99.90;;;;;;5074887;28;20500;-72
2021/01/18 04:47:59;;;;;;;13.77;9.63;;;1.80;99.90;;;;;;5074817;28;20483;-71
2021/01/18 04:50:28;;;;;;;15.43;9.57;;;1.80;99.90;;;;;;5075545;28;20436;-72
2021/01/18 04:52:57;;;;;;;17.03;10.23;;;1.90;99.90;;;;;;5081578;28;20426;-72
2021/01/18 04:55:30;;;;;;;17.23;8.53;;;1.90;99.90;;;;;;5089878;28;20465;-70
2021/01/18 04:58:19;;;;;;;13.83;9.70;;;1.90;99.90;;;;;;5077353;28;20476;-71
2021/01/18 05:00:49;;;;;;;15.70;9.60;;;1.90;99.90;;;;;;5070459;28;20575;-72
2021/01/18 05:03:20;;;;;;;18.53;9.47;;;1.90;99.90;;;;;;5079595;28;20967;-70
2021/01/18 05:06:31;;;;;;;16.00;9.77;;;1.90;99.90;;;;;;5075780;28;20521;-70
2021/01/18 05:09:20;;;;;;;19.70;10.20;;;1.90;99.90;;;;;;5061156;28;20920;-71
2021/01/18 05:11:48;;;;;;;20.97;9.93;;;1.90;99.90;;;;;;5061204;28;20452;-70
2021/01/18 05:14:16;;;;;;;17.10;10.20;;;2.00;99.90;;;;;;5057764;28;20430;-71
2021/01/18 05:16:51;;;;;;;13.60;8.97;;;2.00;99.90;;;;;;5056137;28;20491;-74
2021/01/18 05:19:20;;;;;;;17.17;9.37;;;2.00;99.90;;;;;;5074915;28;20494;-71
2021/01/18 05:21:49;;;;;;;16.07;9.90;;;2.10;99.90;;;;;;5056811;28;20952;-71
2021/01/18 05:27:11;;;;;;;16.57;10.10;;;2.10;99.90;;;;;;5075290;28;20473;-71
2021/01/18 05:29:39;;;;;;;16.20;9.07;;;2.10;99.90;;;;;;5055972;28;20488;-70
2021/01/18 05:32:24;;;;;;;16.07;10.10;;;2.20;99.90;;;;;;5073748;28;20500;-72
2021/01/18 05:35:10;;;;;;;12.83;9.10;;;2.20;99.90;;;;;;5075099;28;20466;-71
2021/01/18 05:37:57;;;;;;;15.57;9.93;;;2.20;99.90;;;;;;5074327;28;20462;-71
2021/01/18 05:40:26;;;;;;;15.10;9.70;;;2.20;99.90;;;;;;5074049;28;20470;-71
2021/01/18 05:42:59;;;;;;;12.63;9.30;;;2.20;99.90;;;;;;5074585;28;20438;-73
2021/01/18 05:45:31;;;;;;;16.70;10.97;;;2.20;99.90;;;;;;5068455;28;20481;-70
2021/01/18 05:48:00;;;;;;;13.93;10.43;;;2.20;99.90;;;;;;5074010;28;20473;-70
2021/01/18 05:50:28;;;;;;;17.77;10.30;;;2.20;99.90;;;;;;5074208;28;20438;-71
2021/01/18 05:52:57;;;;;;;20.23;11.47;;;2.20;99.90;;;;;;5074022;28;20486;-70
2021/01/18 05:55:28;;;;;;;14.37;9.80;;;2.20;99.90;;;;;;5073838;28;20465;-70
2021/01/18 05:57:58;;;;;;;14.90;10.90;;;2.20;99.90;;;;;;5056326;28;20466;-73
2021/01/18 06:00:31;;;;;;;18.43;9.80;;;2.20;99.90;;;;;;5056627;28;20476;-71
2021/01/18 06:03:04;;;;;;;21.47;12.50;;;2.20;99.90;;;;;;5074509;28;20843;-72
2021/01/18 06:05:34;;;;;;;18.30;11.30;;;2.20;99.90;;;;;;5075253;28;20785;-72
2021/01/18 06:08:10;;;;;;;15.87;11.23;;;2.20;99.90;;;;;;5056147;28;20502;-71
2021/01/18 06:11:03;;;;;;;21.37;12.10;;;2.20;99.90;;;;;;5074093;28;20496;-71
2021/01/18 06:13:32;;;;;;;23.27;11.03;;;2.20;99.90;;;;;;5055511;28;20520;-71
2021/01/18 06:16:18;;;;;;;21.73;11.60;;;2.20;99.90;;;;;;5072970;28;20487;-72
2021/01/18 06:18:46;;;;;;;15.07;10.40;;;2.20;99.90;;;;;;5073431;28;20448;-71
2021/01/18 06:21:14;;;;;;;18.57;12.43;;;2.20;99.90;;;;;;5074014;28;20468;-71
2021/01/18 06:23:42;;;;;;;18.83;11.80;;;2.20;99.90;;;;;;5074608;28;20452;-73
2021/01/18 06:26:09;;;;;;;19.37;11.13;;;2.30;99.90;;;;;;5074290;28;20430;-71
2021/01/18 06:28:38;;;;;;;18.13;10.07;;;2.30;99.90;;;;;;5073880;28;20426;-71
2021/01/18 06:31:10;;;;;;;19.37;11.47;;;2.30;99.90;;;;;;5055670;28;20469;-70
2021/01/18 06:33:42;;;;;;;18.23;11.17;;;2.30;99.90;;;;;;5055750;28;20465;-71
2021/01/18 06:36:19;;;;;;;19.07;11.77;;;2.20;99.90;;;;;;5039861;28;20429;-71
2021/01/18 06:39:01;;;;;;;20.10;12.10;;;2.20;99.90;;;;;;5074507;28;20430;-72
2021/01/18 06:41:30;;;;;;;16.87;10.40;;;2.20;99.90;;;;;;5055814;28;20426;-70
2021/01/18 06:43:58;;;;;;;17.57;10.13;;;2.20;99.90;;;;;;5081594;28;20500;-71
2021/01/18 06:46:29;;;;;;;20.50;12.03;;;2.10;99.90;;;;;;5085191;28;20473;-70
2021/01/18 06:48:57;;;;;;;17.00;12.00;;;2.00;99.90;;;;;;5056897;28;20499;-71
2021/01/18 06:51:26;;;;;;;17.67;10.37;;;1.90;99.90;;;;;;5056587;28;20483;-70
2021/01/18 06:53:54;;;;;;;17.73;10.07;;;1.90;99.90;;;;;;5056204;28;20990;-70
2021/01/18 06:56:35;;;;;;;16.70;10.47;;;1.90;99.90;;;;;;5074566;28;20434;-71
2021/01/18 06:59:06;;;;;;;13.70;9.80;;;2.00;99.90;;;;;;5073858;28;20509;-70
2021/01/18 07:01:36;;;;;;;15.80;10.10;;;2.00;99.90;;;;;;5067491;28;21165;-70
2021/01/18 07:04:07;;;;;;;14.43;10.83;;;2.00;99.90;;;;;;5065396;28;20457;-71
2021/01/18 07:06:37;;;;;;;15.87;8.50;;;2.00;99.90;;;;;;5048675;28;20501;-70
2021/01/18 07:09:07;;;;;;;17.47;10.87;;;2.00;99.90;;;;;;5070344;28;20427;-71
2021/01/18 07:12:01;;;;;;;19.13;10.90;;;2.00;99.90;;;;;;5051668;28;20493;-70
2021/01/18 07:14:30;;;;;;;16.00;10.33;;;1.90;99.90;;;;;;5069500;28;20453;-71
2021/01/18 07:17:03;;;;;;;16.60;10.10;;;1.90;99.90;;;;;;5048062;28;20582;-70
2021/01/18 07:19:36;;;;;;;16.90;10.93;;;1.90;99.90;;;;;;5069201;28;20457;-72
2021/01/18 07:22:46;;;;;;;14.97;9.17;;;2.00;99.90;;;;;;5069499;28;20461;-70
2021/01/18 07:25:39;;;;;;;17.80;9.97;;;2.00;99.90;;;;;;5051746;28;22223;-71
2021/01/18 07:28:08;;;;;;;13.47;9.70;;;2.00;99.90;;;;;;5069862;28;20588;-70
2021/01/18 07:30:37;;;;;;;15.60;10.40;;;2.00;99.90;;;;;;5068754;28;21163;-71
2021/01/18 07:33:07;;;;;;;15.27;9.60;;;2.00;99.90;;;;;;5050832;28;20481;-73
2021/01/18 07:35:38;;;;;;;16.60;11.10;;;2.00;99.90;;;;;;5069933;28;20461;-70
2021/01/18 07:38:11;;;;;;;19.37;10.30;;;2.10;99.90;;;;;;5069319;28;20516;-70
2021/01/18 07:40:39;;;;;;;15.70;9.40;;;2.10;99.90;;;;;;5051094;28;21241;-71
2021/01/18 07:43:07;;;;;;;15.53;9.03;;;2.10;99.90;;;;;;5069695;28;20515;-70
2021/01/18 07:45:34;;;;;;;19.90;9.60;;;2.30;99.90;;;;;;5069527;28;20469;-71
2021/01/18 07:48:06;;;;;;;20.53;11.83;;;2.30;99.90;;;;;;5068436;28;20558;-70
2021/01/18 07:50:36;;;;;;;15.80;9.67;;;2.40;99.90;;;;;;5068946;28;20467;-71
2021/01/18 07:53:06;;;;;;;14.23;9.43;;;2.50;99.90;;;;;;5034307;28;20845;-70
2021/01/18 07:55:34;;;;;;;15.93;9.80;;;2.50;99.90;;;;;;5069973;28;20639;-70
2021/01/18 07:58:16;;;;;;;16.70;10.70;;;2.50;99.90;;;;;;5069341;28;20489;-71
2021/01/18 08:00:45;;;;;;;17.43;9.73;;;2.50;99.90;;;;;;5067658;28;20479;-70
2021/01/18 08:03:28;;;;;;;13.10;8.40;;;2.60;99.90;;;;;;5068720;28;20525;-71
2021/01/18 08:06:11;;;;;;;10.30;7.50;;;2.50;99.90;;;;;;5050512;28;20464;-70
2021/01/18 08:08:41;;;;;;;20.90;7.70;;;2.40;99.90;;;;;;5069101;28;20446;-71
2021/01/18 08:11:19;;;;;;;13.77;9.00;;;2.40;99.90;;;;;;5068824;28;20472;-70
2021/01/18 08:13:55;;;;;;;21.20;9.20;;;2.40;99.90;;;;;;5050981;28;20971;-70
2021/01/18 08:16:39;;;;;;;14.53;10.33;;;2.40;99.90;;;;;;5049474;28;20987;-71
2021/01/18 08:19:19;;;;;;;12.30;7.90;;;2.40;99.90;;;;;;5049924;28;20464;-70
2021/01/18 08:22:01;;;;;;;14.47;7.90;;;2.50;99.90;;;;;;5068731;28;20478;-70
2021/01/18 08:24:52;;;;;;;17.63;8.63;;;2.40;99.90;;;;;;5072465;28;20427;-70
2021/01/18 08:27:56;;;;;;;14.20;8.57;;;2.40;99.90;;;;;;5054201;28;20516;-70
2021/01/18 08:30:56;;;;;;;17.67;8.90;;;2.40;99.90;;;;;;5021567;28;20463;-70
2021/01/18 08:33:25;;;;;;;20.80;9.47;;;2.40;99.90;;;;;;5075321;28;20504;-71
2021/01/18 08:35:57;;;;;;;16.07;8.50;;;2.40;99.90;;;;;;5084116;28;20476;-71
2021/01/18 08:38:28;;;;;;;14.87;9.97;;;2.40;99.90;;;;;;5069861;28;20484;-70
2021/01/18 08:41:05;;;;;;;17.20;8.77;;;2.50;99.90;;;;;;5068050;28;21036;-70
2021/01/18 08:44:03;;;;;;;14.23;9.27;;;2.50;99.90;;;;;;5067500;28;20492;-70
2021/01/18 08:46:36;;;;;;;12.80;7.47;;;2.40;99.90;;;;;;5066120;28;20477;-71
2021/01/18 08:49:23;;;;;;;16.70;9.40;;;2.40;99.90;;;;;;5049092;28;20446;-70
2021/01/18 08:51:52;;;;;;;12.43;8.50;;;2.40;99.90;;;;;;5049616;28;20556;-70
2021/01/18 08:54:36;;;;;;;12.87;8.63;;;2.40;99.90;;;;;;5067447;28;21205;-71
2021/01/18 08:57:24;;;;;;;14.27;8.00;;;2.40;99.90;;;;;;5067193;28;20480;-71
2021/01/18 09:00:05;;;;;;;13.40;8.97;;;2.40;99.90;;;;;;5049000;28;20989;-72
2021/01/18 09:02:34;;;;;;;14.97;8.80;;;2.30;99.90;;;;;;5032102;28;20544;-71
2021/01/18 09:05:18;;;;;;;13.20;8.63;;;2.40;99.90;;;;;;5066859;28;20449;-71
2021/01/18 09:07:48;;;;;;;17.20;9.63;;;2.40;99.90;;;;;;5049636;28;20432;-70
2021/01/18 09:10:17;;;;;;;14.40;8.20;;;2.40;99.90;;;;;;5067268;28;20462;-71
2021/01/18 09:12:46;;;;;;;13.00;8.17;;;2.40;99.90;;;;;;5049000;28;20457;-71
2021/01/18 09:15:17;;;;;;;14.27;9.50;;;2.40;99.90;;;;;;5065788;28;20461;-71
2021/01/18 09:17:45;;;;;;;15.53;9.07;;;2.40;99.90;;;;;;5048302;28;20497;-71
2021/01/18 09:20:13;;;;;;;15.90;9.47;;;2.60;99.90;;;;;;5067055;28;20469;-71
2021/01/18 09:23:07;;;;;;;12.93;8.27;;;2.50;99.90;;;;;;5066672;28;20452;-70
2021/01/18 09:26:10;;;;;;;15.50;8.80;;;2.60;99.90;;;;;;5068783;28;20464;-70
2021/01/18 09:28:38;;;;;;;12.00;7.50;;;2.60;99.90;;;;;;5073664;28;20457;-71
2021/01/18 09:31:08;;;;;;;10.57;7.27;;;2.50;99.90;;;;;;5049725;28;20561;-71
2021/01/18 09:33:36;;;;;;;20.10;8.40;;;2.60;99.90;;;;;;5068143;28;20951;-72
2021/01/18 09:36:04;;;;;;;11.50;7.30;;;2.60;99.90;;;;;;5034384;28;20952;-71
2021/01/18 09:38:34;;;;;;;11.37;7.80;;;2.60;99.90;;;;;;5049087;28;20565;-70
2021/01/18 09:41:01;;;;;;;14.93;8.37;;;2.70;99.90;;;;;;5066776;28;20435;-71
2021/01/18 09:43:32;;;;;;;9.47;6.23;;;2.80;99.90;;;;;;5048113;28;20951;-71
2021/01/18 09:46:01;;;;;;;12.60;7.33;;;2.80;99.90;;;;;;5065324;28;20530;-71
2021/01/18 09:48:31;;;;;;;8.80;6.30;;;2.80;99.90;;;;;;5066808;28;20457;-71
2021/01/18 09:51:03;;;;;;;11.37;8.57;;;2.80;99.90;;;;;;5066730;28;20564;-71
2021/01/18 09:53:57;;;;;;;8.87;6.87;;;2.90;99.90;;;;;;5050035;28;20831;-71
2021/01/18 09:56:34;;;;;;;11.57;7.20;;;2.90;99.90;;;;;;5051132;28;20554;-71
2021/01/18 09:59:27;;;;;;;10.90;7.10;;;2.80;99.90;;;;;;5072136;28;20496;-71
2021/01/18 10:01:56;;;;;;;11.47;7.10;;;3.00;99.90;;;;;;5071895;28;20448;-71
2021/01/18 10:04:29;;;;;;;8.97;7.30;;;3.10;99.90;;;;;;5059714;28;21736;-71
2021/01/18 10:07:06;;;;;;;11.10;7.37;;;3.00;99.90;;;;;;5058794;28;21021;-70
2021/01/18 10:09:36;;;;;;;10.00;8.00;;;3.10;99.90;;;;;;5050088;28;20457;-73
2021/01/18 10:12:05;;;;;;;13.10;8.50;;;3.20;99.90;;;;;;5067683;28;20441;-71
2021/01/18 10:14:33;;;;;;;8.30;6.40;;;3.20;99.90;;;;;;5049183;28;21003;-71
2021/01/18 10:17:03;;;;;;;11.30;7.83;;;3.30;99.90;;;;;;5065070;28;20501;-71
2021/01/18 10:19:33;;;;;;;14.27;8.00;;;3.30;99.90;;;;;;5048990;28;20470;-70
2021/01/18 10:22:04;;;;;;;9.23;5.97;;;3.40;99.90;;;;;;5067167;28;20444;-71
2021/01/18 10:24:34;;;;;;;13.37;8.57;;;3.40;99.90;;;;;;5070413;28;20523;-71
2021/01/18 10:27:06;;;;;;;10.57;7.60;;;3.50;99.90;;;;;;5077799;28;20865;-70
2021/01/18 10:29:34;;;;;;;9.13;6.97;;;3.50;99.90;;;;;;5068045;28;20461;-70
2021/01/18 10:32:03;;;;;;;11.70;6.60;;;3.60;99.90;;;;;;5065742;28;20481;-72
2021/01/18 10:34:34;;;;;;;9.60;6.70;;;3.60;99.90;;;;;;5035493;28;20465;-71
2021/01/18 10:37:18;;;;;;;9.73;6.63;;;3.50;99.90;;;;;;5071396;28;20886;-70
2021/01/18 10:39:47;;;;;;;9.13;7.30;;;3.60;99.90;;;;;;5079145;28;20465;-71
2021/01/18 10:42:16;;;;;;;9.07;7.07;;;3.60;99.90;;;;;;5076450;28;20457;-70
2021/01/18 10:44:49;;;;;;;10.13;7.30;;;3.60;99.90;;;;;;5057934;28;20478;-70
2021/01/18 10:47:20;;;;;;;9.60;7.93;;;3.60;99.90;;;;;;5077510;28;20480;-70
2021/01/18 10:49:53;;;;;;;8.40;6.43;;;3.50;99.90;;;;;;5061000;28;20484;-71
2021/01/18 10:52:31;;;;;;;11.43;8.17;;;3.50;99.90;;;;;;5065636;28;21049;-70
2021/01/18 10:54:59;;;;;;;13.83;7.87;;;3.50;99.90;;;;;;5084019;28;20569;-72
2021/01/18 10:57:45;;;;;;;12.17;7.53;;;3.50;99.90;;;;;;5052778;28;20517;-70
2021/01/18 11:00:17;;;;;;;13.17;7.83;;;3.30;99.90;;;;;;5060362;28;20450;-71
2021/01/18 11:02:54;;;;;;;13.30;8.00;;;3.30;99.90;;;;;;5078738;28;20473;-72
2021/01/18 11:05:34;;;;;;;10.23;8.37;;;3.40;99.90;;;;;;5037782;28;20444;-71
2021/01/18 11:08:03;;;;;;;10.90;7.83;;;3.50;99.90;;;;;;5041344;28;20439;-71
2021/01/18 11:10:35;;;;;;;13.73;8.27;;;3.50;99.90;;;;;;5058317;28;20552;-71
2021/01/18 11:13:06;;;;;;;11.60;7.77;;;3.60;99.90;;;;;;5075807;28;20997;-71
2021/01/18 11:15:47;;;;;;;11.20;7.53;;;3.50;99.90;;;;;;5076032;28;20475;-72
2021/01/18 11:18:15;;;;;;;10.23;7.40;;;3.40;99.90;;;;;;5061711;28;20532;-71
2021/01/18 11:20:46;;;;;;;13.03;8.20;;;3.40;99.90;;;;;;5081947;28;20458;-71
2021/01/18 11:23:13;;;;;;;10.50;7.43;;;3.30;99.90;;;;;;5080331;28;20443;-71
2021/01/18 11:25:41;;;;;;;11.93;7.07;;;3.30;99.90;;;;;;5063911;28;20457;-70
2021/01/18 11:28:11;;;;;;;11.80;7.27;;;3.40;99.90;;;;;;5044673;28;20473;-70
2021/01/18 11:31:05;;;;;;;10.17;6.67;;;3.40;99.90;;;;;;5077201;28;20465;-71
2021/01/18 11:33:33;;;;;;;10.87;7.00;;;3.30;99.90;;;;;;5079581;28;21912;-70
2021/01/18 11:36:01;;;;;;;12.60;7.70;;;3.20;99.90;;;;;;5060053;28;20461;-70
2021/01/18 11:38:29;;;;;;;10.67;7.07;;;3.20;99.90;;;;;;5079536;28;20511;-70
2021/01/18 11:40:58;;;;;;;13.80;9.33;;;3.20;99.90;;;;;;5080867;28;20533;-71
2021/01/18 11:43:26;;;;;;;14.20;8.20;;;3.20;99.90;;;;;;5061565;28;20525;-71
2021/01/18 11:45:53;;;;;;;13.90;8.60;;;3.20;99.90;;;;;;5080096;28;20488;-70
2021/01/18 11:48:21;;;;;;;11.97;6.80;;;3.20;99.90;;;;;;5062100;28;20470;-73
2021/01/18 11:50:48;;;;;;;10.40;8.00;;;3.10;99.90;;;;;;5042830;28;20832;-71
2021/01/18 11:53:18;;;;;;;17.47;8.40;;;3.20;99.90;;;;;;5052290;28;20527;-70
2021/01/18 11:55:50;;;;;;;9.50;7.60;;;3.20;99.90;;;;;;5054176;28;20550;-70
2021/01/18 11:58:18;;;;;;;16.07;8.67;;;3.20;99.90;;;;;;5054353;28;20528;-70
2021/01/18 12:00:45;;;;;;;10.77;7.70;;;3.20;99.90;;;;;;5070203;28;20561;-70
2021/01/18 12:03:16;;;;;;;12.17;8.20;;;3.30;99.90;;;;;;5073132;28;20468;-71
2021/01/18 12:05:44;;;;;;;12.43;8.10;;;3.50;99.90;;;;;;5051900;28;20481;-71
2021/01/18 12:08:12;;;;;;;10.20;7.00;;;3.60;99.90;;;;;;5035545;28;20955;-70
2021/01/18 12:10:41;;;;;;;17.30;7.50;;;3.70;99.90;;;;;;5051581;28;20486;-71
2021/01/18 12:13:09;;;;;;;13.80;7.80;;;3.70;99.90;;;;;;5034890;28;20472;-70
2021/01/18 12:15:37;;;;;;;9.20;7.50;;;3.60;99.90;;;;;;5034566;28;20542;-70
2021/01/18 12:18:05;;;;;;;13.63;6.70;;;3.70;99.90;;;;;;5052743;28;20539;-72
2021/01/18 12:20:33;;;;;;;11.50;8.20;;;3.60;99.90;;;;;;5035395;28;20462;-72
2021/01/18 12:23:01;;;;;;;16.50;8.40;;;3.70;99.90;;;;;;5070372;28;20454;-71
2021/01/18 12:25:28;;;;;;;12.70;8.00;;;3.70;99.90;;;;;;5050078;28;20474;-72
2021/01/18 12:27:58;;;;;;;15.43;8.93;;;3.70;99.90;;;;;;5049686;28;20553;-72
2021/01/18 12:30:26;;;;;;;16.10;8.90;;;3.60;99.90;;;;;;5051130;28;20920;-72
2021/01/18 12:32:54;;;;;;;10.87;8.17;;;3.40;99.90;;;;;;5070453;28;20486;-72
2021/01/18 12:35:23;;;;;;;8.37;7.50;;;3.40;99.90;;;;;;5052190;28;20502;-71
2021/01/18 12:37:52;;;;;;;14.30;8.13;;;3.30;99.90;;;;;;5050792;28;20530;-70
2021/01/18 12:40:19;;;;;;;14.13;7.90;;;3.20;99.90;;;;;;5051281;28;21981;-72
2021/01/18 12:42:48;;;;;;;9.87;7.90;;;3.10;99.90;;;;;;5074957;28;20454;-71
2021/01/18 12:45:18;;;;;;;10.80;7.03;;;3.10;99.90;;;;;;5062126;28;20461;-70
2021/01/18 12:47:46;;;;;;;12.17;7.13;;;3.10;99.90;;;;;;5068365;28;20473;-71
2021/01/18 12:50:14;;;;;;;12.20;8.67;;;3.10;99.90;;;;;;5050044;28;20936;-71
2021/01/18 12:52:42;;;;;;;14.77;9.47;;;3.00;99.90;;;;;;5050031;28;20450;-71
2021/01/18 12:55:11;;;;;;;11.40;7.47;;;3.00;99.90;;;;;;5068080;28;20519;-71
2021/01/18 12:57:38;;;;;;;11.90;8.53;;;3.00;99.90;;;;;;5049892;28;20497;-72
2021/01/18 13:00:08;;;;;;;19.70;9.77;;;3.00;99.90;;;;;;5067383;28;20792;-70
2021/01/18 13:02:39;;;;;;;12.00;8.13;;;3.00;99.90;;;;;;5066744;28;20485;-71
2021/01/18 13:05:08;;;;;;;15.63;8.10;;;3.00;99.90;;;;;;5048483;28;20485;-71
2021/01/18 13:07:47;;;;;;;13.43;8.50;;;3.00;99.90;;;;;;5066732;28;20453;-72
2021/01/18 13:10:15;;;;;;;18.63;8.97;;;3.10;99.90;;;;;;5066078;28;20465;-70
2021/01/18 13:12:43;;;;;;;15.13;9.40;;;3.00;99.90;;;;;;5067094;28;20493;-72
2021/01/18 13:15:14;;;;;;;14.60;9.63;;;3.00;99.90;;;;;;5048927;28;20501;-71
2021/01/18 13:17:47;;;;;;;20.07;8.73;;;3.00;99.90;;;;;;5066148;28;20601;-72
2021/01/18 13:20:17;;;;;;;13.70;8.53;;;3.00;99.90;;;;;;5048941;28;20980;-72